createdAt,value
2018-03-15T00:01:21.311Z,4.67
2018-03-15T00:03:48.058Z,4.43
2018-03-15T00:06:14.792Z,3.93
2018-03-15T00:08:41.594Z,6.40
2018-03-15T00:11:08.340Z,5.27
2018-03-15T00:13:35.101Z,5.47
2018-03-15T00:16:01.855Z,4.70
2018-03-15T00:18:28.593Z,3.80
2018-03-15T00:20:55.324Z,4.60
2018-03-15T00:23:22.092Z,4.70
2018-03-15T00:25:48.848Z,4.33
2018-03-15T00:28:15.593Z,5.60
2018-03-15T00:30:42.315Z,5.13
2018-03-15T00:33:10.025Z,5.57
2018-03-15T00:35:36.800Z,5.40
2018-03-15T00:38:03.547Z,5.63
2018-03-15T00:40:30.258Z,5.10
2018-03-15T00:42:56.992Z,5.30
2018-03-15T00:45:23.714Z,5.30
2018-03-15T00:47:50.446Z,5.40
2018-03-15T00:50:17.256Z,5.60
2018-03-15T00:52:44.000Z,8.03
2018-03-15T00:55:10.741Z,6.20
2018-03-15T00:57:37.472Z,5.03
2018-03-15T01:00:04.217Z,4.73
2018-03-15T01:02:31.008Z,5.13
2018-03-15T01:04:57.736Z,4.67
2018-03-15T01:07:24.507Z,4.83
2018-03-15T01:09:51.248Z,4.87
2018-03-15T01:12:17.964Z,5.70
2018-03-15T01:14:44.700Z,4.33
2018-03-15T01:17:11.466Z,6.23
2018-03-15T01:19:38.240Z,5.40
2018-03-15T01:22:05.014Z,5.80
2018-03-15T01:24:31.742Z,5.53
2018-03-15T01:26:58.519Z,4.90
2018-03-15T01:29:25.269Z,4.93
2018-03-15T01:31:52.100Z,5.40
2018-03-15T01:34:18.856Z,5.13
2018-03-15T01:36:45.681Z,5.53
2018-03-15T01:39:12.502Z,5.63
2018-03-15T01:41:39.261Z,6.07
2018-03-15T01:44:06.028Z,6.10
2018-03-15T01:46:32.768Z,6.37
2018-03-15T01:48:59.504Z,7.00
2018-03-15T01:51:26.258Z,6.07
2018-03-15T01:53:52.987Z,6.17
2018-03-15T01:56:19.726Z,5.43
2018-03-15T01:58:46.484Z,5.57
2018-03-15T02:01:13.204Z,5.13
2018-03-15T02:03:39.943Z,5.30
2018-03-15T02:06:06.689Z,6.37
2018-03-15T02:08:33.415Z,6.33
2018-03-15T02:11:00.143Z,5.93
2018-03-15T02:13:26.888Z,5.50
2018-03-15T02:15:53.612Z,6.37
2018-03-15T02:18:20.339Z,5.87
2018-03-15T02:20:47.089Z,6.60
2018-03-15T02:23:14.065Z,6.47
2018-03-15T02:25:40.822Z,7.70
2018-03-15T02:28:07.544Z,6.30
2018-03-15T02:30:34.354Z,5.90
2018-03-15T02:33:01.090Z,6.50
2018-03-15T02:35:27.801Z,6.07
2018-03-15T02:37:54.567Z,6.40
2018-03-15T02:40:21.299Z,6.50
2018-03-15T02:42:48.085Z,6.73
2018-03-15T02:45:14.804Z,7.30
2018-03-15T02:47:41.559Z,8.47
2018-03-15T02:50:08.271Z,6.70
2018-03-15T02:52:35.013Z,5.90
2018-03-15T02:55:01.744Z,6.90
2018-03-15T02:57:28.476Z,7.10
2018-03-15T02:59:55.217Z,6.30
2018-03-15T03:02:21.940Z,6.47
2018-03-15T03:04:48.677Z,8.10
2018-03-15T03:07:15.412Z,7.60
2018-03-15T03:09:42.131Z,6.80
2018-03-15T03:12:08.891Z,8.83
2018-03-15T03:14:35.606Z,9.67
2018-03-15T03:17:02.374Z,8.80
2018-03-15T03:19:29.196Z,6.80
2018-03-15T03:21:55.907Z,7.20
2018-03-15T03:24:22.651Z,7.43
2018-03-15T03:26:49.376Z,7.30
2018-03-15T03:29:16.091Z,7.80
2018-03-15T03:31:42.856Z,7.90
2018-03-15T03:34:09.597Z,7.40
2018-03-15T03:36:36.376Z,8.90
2018-03-15T03:39:03.187Z,9.30
2018-03-15T03:41:29.937Z,9.97
2018-03-15T03:43:56.733Z,9.40
2018-03-15T03:46:23.483Z,7.10
2018-03-15T03:48:50.243Z,8.50
2018-03-15T03:51:16.956Z,8.90
2018-03-15T03:53:43.698Z,13.93
2018-03-15T03:56:10.439Z,11.40
2018-03-15T03:58:37.184Z,10.63
2018-03-15T04:01:03.919Z,8.93
2018-03-15T04:03:30.762Z,9.73
2018-03-15T04:05:57.502Z,9.60
2018-03-15T04:08:24.229Z,13.20
2018-03-15T04:10:50.961Z,27.30
2018-03-15T04:13:17.674Z,12.13
2018-03-15T04:15:44.456Z,9.97
2018-03-15T04:18:11.231Z,10.90
2018-03-15T04:20:38.008Z,15.70
2018-03-15T04:23:04.754Z,12.10
2018-03-15T04:25:31.485Z,11.80
2018-03-15T04:27:58.215Z,17.17
2018-03-15T04:30:24.993Z,15.87
2018-03-15T04:32:51.738Z,13.27
2018-03-15T04:35:18.507Z,14.03
2018-03-15T04:37:45.285Z,14.13
2018-03-15T04:40:12.080Z,12.27
2018-03-15T04:42:38.832Z,15.80
2018-03-15T04:45:05.599Z,14.17
2018-03-15T04:47:32.392Z,15.13
2018-03-15T04:49:59.135Z,16.60
2018-03-15T04:52:25.998Z,14.27
2018-03-15T04:54:52.742Z,18.03
2018-03-15T04:57:19.629Z,14.10
2018-03-15T04:59:46.395Z,13.50
2018-03-15T05:02:13.142Z,15.57
2018-03-15T05:04:39.973Z,15.47
2018-03-15T05:07:07.701Z,16.13
2018-03-15T05:09:34.475Z,20.53
2018-03-15T05:12:01.224Z,19.80
2018-03-15T05:14:27.982Z,17.70
2018-03-15T05:16:54.734Z,19.23
2018-03-15T05:19:21.490Z,22.57
2018-03-15T05:21:48.526Z,24.00
2018-03-15T05:24:15.281Z,22.70
2018-03-15T05:26:42.017Z,22.10
2018-03-15T05:29:08.742Z,17.10
2018-03-15T05:31:35.502Z,20.93
2018-03-15T05:34:02.220Z,19.83
2018-03-15T05:36:28.945Z,18.07
2018-03-15T05:38:55.751Z,15.07
2018-03-15T05:41:22.508Z,15.70
2018-03-15T05:43:49.268Z,17.97
2018-03-15T05:46:16.004Z,18.50
2018-03-15T05:48:42.746Z,19.67
2018-03-15T05:51:09.487Z,17.87
2018-03-15T05:53:36.259Z,20.60
2018-03-15T05:56:03.027Z,24.67
2018-03-15T05:58:29.769Z,19.17
2018-03-15T06:00:56.542Z,15.27
2018-03-15T06:03:23.318Z,23.13
2018-03-15T06:05:50.056Z,25.90
2018-03-15T06:08:16.847Z,19.43
2018-03-15T06:10:43.619Z,20.60
2018-03-15T06:13:10.380Z,20.80
2018-03-15T06:15:37.174Z,21.50
2018-03-15T06:18:03.942Z,19.53
2018-03-15T06:20:30.744Z,21.27
2018-03-15T06:22:57.489Z,17.97
2018-03-15T06:25:24.220Z,18.50
2018-03-15T06:27:50.958Z,18.10
2018-03-15T06:30:17.702Z,17.93
2018-03-15T06:32:44.438Z,21.10
2018-03-15T06:35:11.161Z,20.20
2018-03-15T06:37:37.900Z,26.13
2018-03-15T06:40:04.640Z,20.83
2018-03-15T06:42:31.375Z,21.50
2018-03-15T06:44:58.126Z,19.63
2018-03-15T06:47:24.854Z,22.53
2018-03-15T06:49:51.595Z,20.13
2018-03-15T06:52:18.350Z,20.43
2018-03-15T06:54:45.077Z,22.90
2018-03-15T06:57:11.847Z,26.80
2018-03-15T06:59:38.590Z,26.33
2018-03-15T07:02:05.362Z,28.60
2018-03-15T07:04:32.073Z,24.60
2018-03-15T07:06:58.813Z,23.90
2018-03-15T07:09:25.536Z,23.83
2018-03-15T07:11:52.291Z,23.27
2018-03-15T07:14:19.037Z,25.90
2018-03-15T07:16:45.778Z,26.93
2018-03-15T07:19:12.793Z,23.57
2018-03-15T07:21:39.531Z,25.67
2018-03-15T07:24:06.286Z,27.47
2018-03-15T07:26:33.005Z,29.67
2018-03-15T07:28:59.738Z,34.50
2018-03-15T07:31:26.496Z,26.53
2018-03-15T07:33:53.236Z,23.50
2018-03-15T07:36:19.972Z,24.90
2018-03-15T07:38:46.720Z,28.20
2018-03-15T07:41:13.475Z,27.47
2018-03-15T07:43:40.212Z,27.90
2018-03-15T07:46:13.626Z,27.10
2018-03-15T07:48:40.949Z,26.20
2018-03-15T07:51:13.562Z,28.37
2018-03-15T07:53:45.830Z,30.03
2018-03-15T07:56:12.790Z,26.80
2018-03-15T07:58:50.830Z,29.97
2018-03-15T08:01:27.676Z,23.50
2018-03-15T08:04:00.453Z,24.80
2018-03-15T08:06:37.174Z,20.57
2018-03-15T08:09:14.282Z,24.37
2018-03-15T08:11:51.499Z,25.07
2018-03-15T08:14:24.974Z,22.80
2018-03-15T08:16:56.661Z,22.10
2018-03-15T08:19:35.634Z,23.60
2018-03-15T08:22:15.722Z,24.23
2018-03-15T08:24:47.790Z,25.67
2018-03-15T08:27:14.517Z,21.00
2018-03-15T08:29:41.236Z,20.70
2018-03-15T08:32:07.987Z,26.57
2018-03-15T08:34:34.701Z,22.03
2018-03-15T08:37:01.465Z,27.73
2018-03-15T08:39:28.204Z,20.23
2018-03-15T08:41:54.979Z,21.23
2018-03-15T08:44:21.726Z,23.60
2018-03-15T08:46:48.467Z,20.60
2018-03-15T08:49:15.197Z,20.70
2018-03-15T08:51:41.933Z,18.33
2018-03-15T08:54:08.697Z,19.13
2018-03-15T08:56:35.732Z,20.63
2018-03-15T08:59:02.476Z,18.13
2018-03-15T09:01:29.250Z,20.47
2018-03-15T09:03:55.971Z,18.73
2018-03-15T09:06:22.696Z,19.13
2018-03-15T09:08:49.503Z,19.77
2018-03-15T09:11:16.189Z,18.60
2018-03-15T09:13:42.935Z,27.70
2018-03-15T09:16:09.662Z,20.53
2018-03-15T09:18:36.411Z,17.07
2018-03-15T09:21:03.179Z,21.60
2018-03-15T09:23:29.917Z,25.07
2018-03-15T09:25:56.651Z,24.63
2018-03-15T09:28:23.354Z,21.30
2018-03-15T09:30:50.095Z,22.13
2018-03-15T09:33:16.839Z,21.23
2018-03-15T09:35:43.587Z,22.20
2018-03-15T09:38:10.305Z,21.50
2018-03-15T09:40:37.107Z,27.03
2018-03-15T09:43:03.804Z,24.60
2018-03-15T09:45:30.560Z,23.20
2018-03-15T09:47:57.326Z,24.03
2018-03-15T09:50:24.097Z,26.30
2018-03-15T09:52:50.836Z,24.03
2018-03-15T09:55:17.589Z,26.30
2018-03-15T09:57:45.284Z,18.43
2018-03-15T10:00:12.074Z,22.60
2018-03-15T10:02:38.950Z,29.43
2018-03-15T10:05:05.693Z,24.73
2018-03-15T10:07:33.028Z,21.63
2018-03-15T10:10:03.228Z,22.70
2018-03-15T10:12:30.208Z,25.20
2018-03-15T10:14:56.942Z,22.70
2018-03-15T10:17:25.075Z,22.10
2018-03-15T10:19:51.826Z,20.67
2018-03-15T10:22:18.566Z,24.73
2018-03-15T10:24:45.576Z,23.60
2018-03-15T10:27:18.325Z,21.63
2018-03-15T10:29:45.593Z,21.17
2018-03-15T10:32:12.453Z,19.87
2018-03-15T10:34:39.460Z,22.60
2018-03-15T10:37:06.247Z,21.93
2018-03-15T10:39:34.272Z,22.17
2018-03-15T10:42:01.026Z,21.57
2018-03-15T10:44:27.767Z,26.80
2018-03-15T10:46:55.636Z,23.20
2018-03-15T10:49:22.377Z,20.87
2018-03-15T10:51:49.138Z,23.27
2018-03-15T10:54:15.879Z,22.10
2018-03-15T10:56:42.694Z,23.10
2018-03-15T10:59:13.900Z,22.57
2018-03-15T11:01:46.389Z,20.73
2018-03-15T11:04:13.167Z,20.47
2018-03-15T11:06:41.702Z,21.77
2018-03-15T11:09:15.558Z,25.57
2018-03-15T11:11:42.409Z,18.93
2018-03-15T11:14:09.164Z,23.43
2018-03-15T11:16:35.902Z,27.13
2018-03-15T11:19:02.649Z,21.80
2018-03-15T11:21:29.434Z,20.27
2018-03-15T11:23:56.283Z,17.70
2018-03-15T11:26:22.915Z,27.93
2018-03-15T11:28:49.650Z,24.87
2018-03-15T11:31:16.392Z,22.90
2018-03-15T11:33:43.183Z,21.57
2018-03-15T11:36:09.936Z,18.83
2018-03-15T11:38:36.688Z,25.10
2018-03-15T11:41:03.481Z,21.80
2018-03-15T11:43:30.228Z,22.20
2018-03-15T11:45:56.966Z,21.03
2018-03-15T11:48:23.725Z,20.33
2018-03-15T11:50:50.456Z,23.80
2018-03-15T11:53:17.202Z,21.90
2018-03-15T11:55:43.939Z,25.13
2018-03-15T11:58:10.701Z,26.30
2018-03-15T12:00:37.522Z,21.33
2018-03-15T12:03:04.265Z,19.00
2018-03-15T12:05:31.045Z,22.80
2018-03-15T12:07:57.784Z,21.57
2018-03-15T12:10:24.541Z,23.10
2018-03-15T12:12:51.295Z,21.73
2018-03-15T12:15:18.106Z,19.97
2018-03-15T12:17:44.859Z,19.67
2018-03-15T12:20:11.571Z,19.60
2018-03-15T12:22:38.327Z,19.87
2018-03-15T12:25:05.078Z,29.00
2018-03-15T12:27:31.791Z,23.43
2018-03-15T12:29:58.551Z,23.73
2018-03-15T12:32:25.264Z,20.03
2018-03-15T12:34:51.996Z,22.13
2018-03-15T12:37:18.760Z,21.23
2018-03-15T12:39:45.511Z,20.47
2018-03-15T12:42:12.265Z,23.20
2018-03-15T12:44:39.010Z,19.90
2018-03-15T12:47:05.731Z,19.77
2018-03-15T12:49:32.444Z,18.00
2018-03-15T12:51:59.196Z,19.50
2018-03-15T12:54:25.911Z,19.10
2018-03-15T12:56:52.625Z,19.33
2018-03-15T12:59:19.378Z,22.87
2018-03-15T13:01:46.090Z,24.60
2018-03-15T13:04:12.836Z,22.20
2018-03-15T13:06:39.587Z,20.80
2018-03-15T13:09:06.427Z,26.20
2018-03-15T13:11:33.207Z,21.37
2018-03-15T13:13:59.925Z,19.67
2018-03-15T13:16:26.664Z,26.83
2018-03-15T13:18:53.390Z,20.40
2018-03-15T13:21:20.133Z,20.13
2018-03-15T13:23:46.908Z,20.30
2018-03-15T13:26:13.655Z,18.20
2018-03-15T13:28:40.712Z,24.07
2018-03-15T13:31:07.511Z,18.67
2018-03-15T13:33:34.276Z,21.17
2018-03-15T13:36:01.009Z,20.87
2018-03-15T13:38:27.759Z,19.57
2018-03-15T13:40:54.533Z,20.57
2018-03-15T13:43:21.283Z,21.00
2018-03-15T13:45:48.079Z,19.37
2018-03-15T13:48:14.795Z,20.67
2018-03-15T13:50:41.598Z,19.53
2018-03-15T13:53:08.321Z,18.57
2018-03-15T13:55:35.061Z,23.33
2018-03-15T13:58:01.792Z,21.50
2018-03-15T14:00:28.505Z,18.23
2018-03-15T14:02:55.243Z,19.87
2018-03-15T14:05:21.955Z,19.17
2018-03-15T14:07:48.679Z,21.80
2018-03-15T14:10:15.435Z,19.20
2018-03-15T14:12:42.145Z,19.23
2018-03-15T14:15:08.896Z,22.80
2018-03-15T14:17:35.613Z,21.10
2018-03-15T14:20:02.351Z,19.23
2018-03-15T14:22:29.094Z,20.90
2018-03-15T14:24:55.807Z,19.03
2018-03-15T14:27:22.555Z,18.80
2018-03-15T14:29:49.294Z,22.03
2018-03-15T14:32:16.095Z,21.50
2018-03-15T14:34:42.793Z,22.03
2018-03-15T14:37:09.530Z,18.43
2018-03-15T14:39:36.274Z,20.23
2018-03-15T14:42:02.997Z,23.03
2018-03-15T14:44:29.762Z,18.40
2018-03-15T14:46:56.490Z,22.13
2018-03-15T14:49:23.218Z,17.30
2018-03-15T14:51:50.235Z,16.87
2018-03-15T14:54:16.963Z,18.40
2018-03-15T14:56:43.707Z,17.73
2018-03-15T14:59:10.453Z,19.60
2018-03-15T15:01:37.184Z,19.00
2018-03-15T15:04:03.933Z,18.63
2018-03-15T15:06:30.659Z,16.93
2018-03-15T15:08:57.368Z,16.40
2018-03-15T15:11:24.111Z,19.43
2018-03-15T15:13:50.865Z,15.90
2018-03-15T15:16:17.593Z,20.93
2018-03-15T15:18:44.328Z,17.93
2018-03-15T15:21:11.079Z,18.30
2018-03-15T15:23:37.795Z,22.17
2018-03-15T15:26:04.537Z,21.00
2018-03-15T15:28:31.254Z,23.03
2018-03-15T15:30:58.000Z,23.00
2018-03-15T15:33:24.738Z,18.60
2018-03-15T15:35:51.444Z,22.30
2018-03-15T15:38:18.169Z,28.90
2018-03-15T15:40:44.924Z,23.40
2018-03-15T15:43:11.660Z,19.37
2018-03-15T15:45:38.413Z,18.77
2018-03-15T15:48:05.127Z,16.77
2018-03-15T15:50:31.895Z,19.43
2018-03-15T15:52:58.608Z,17.33
2018-03-15T15:55:25.382Z,19.73
2018-03-15T15:57:52.146Z,19.17
2018-03-15T16:00:18.888Z,18.70
2018-03-15T16:02:45.668Z,19.20
2018-03-15T16:05:12.404Z,21.97
2018-03-15T16:07:39.137Z,18.27
2018-03-15T16:10:05.863Z,20.63
2018-03-15T16:12:32.625Z,21.63
2018-03-15T16:14:59.353Z,24.57
2018-03-15T16:17:26.119Z,24.87
2018-03-15T16:19:52.867Z,24.70
2018-03-15T16:22:19.594Z,18.87
2018-03-15T16:24:46.356Z,21.97
2018-03-15T16:27:13.094Z,18.70
2018-03-15T16:29:39.862Z,22.17
2018-03-15T16:32:06.583Z,23.93
2018-03-15T16:34:33.300Z,18.90
2018-03-15T16:37:00.074Z,23.43
2018-03-15T16:39:26.821Z,23.80
2018-03-15T16:41:53.558Z,18.27
2018-03-15T16:44:20.300Z,17.60
2018-03-15T16:46:47.034Z,24.63
2018-03-15T16:49:13.795Z,19.70
2018-03-15T16:51:40.597Z,20.30
2018-03-15T16:54:07.399Z,19.60
2018-03-15T16:56:34.132Z,22.00
2018-03-15T16:59:00.875Z,19.87
2018-03-15T17:01:27.610Z,21.27
2018-03-15T17:03:54.353Z,24.13
2018-03-15T17:06:21.084Z,20.27
2018-03-15T17:08:47.830Z,18.57
2018-03-15T17:11:14.631Z,22.33
2018-03-15T17:13:41.331Z,21.60
2018-03-15T17:16:08.041Z,24.83
2018-03-15T17:18:34.767Z,21.70
2018-03-15T17:21:01.519Z,24.17
2018-03-15T17:23:28.255Z,21.93
2018-03-15T17:25:54.992Z,23.23
2018-03-15T17:28:21.719Z,22.90
2018-03-15T17:30:48.492Z,21.40
2018-03-15T17:33:15.212Z,21.50
2018-03-15T17:35:41.999Z,25.80
2018-03-15T17:38:08.734Z,19.27
2018-03-15T17:40:35.471Z,18.13
2018-03-15T17:43:02.208Z,18.03
2018-03-15T17:45:28.942Z,18.30
2018-03-15T17:47:55.729Z,21.47
2018-03-15T17:50:22.526Z,19.03
2018-03-15T17:52:49.296Z,20.57
2018-03-15T17:55:16.044Z,21.10
2018-03-15T17:57:42.776Z,23.43
2018-03-15T18:00:09.545Z,19.43
2018-03-15T18:02:36.258Z,16.70
2018-03-15T18:05:03.042Z,23.77
2018-03-15T18:07:29.757Z,17.00
2018-03-15T18:09:56.506Z,16.93
2018-03-15T18:12:23.238Z,22.87
2018-03-15T18:14:50.129Z,17.90
2018-03-15T18:17:16.900Z,16.50
2018-03-15T18:19:43.646Z,15.80
2018-03-15T18:22:10.517Z,17.50
2018-03-15T18:24:37.368Z,9.47
2018-03-15T18:27:04.100Z,12.37
2018-03-15T18:29:30.879Z,12.40
2018-03-15T18:31:57.615Z,12.47
2018-03-15T18:34:24.354Z,8.37
2018-03-15T18:36:51.270Z,7.03
2018-03-15T18:39:18.030Z,5.80
2018-03-15T18:41:44.747Z,6.70
2018-03-15T18:44:11.471Z,6.47
2018-03-15T18:46:38.224Z,6.47
2018-03-15T18:49:05.009Z,5.30
2018-03-15T18:51:31.731Z,4.63
2018-03-15T18:53:58.509Z,6.40
2018-03-15T18:56:25.269Z,4.70
2018-03-15T18:58:51.988Z,3.77
2018-03-15T19:01:18.736Z,5.13
2018-03-15T19:03:45.494Z,3.33
2018-03-15T19:06:12.211Z,3.07
2018-03-15T19:08:38.959Z,3.20
2018-03-15T19:11:05.711Z,4.20
2018-03-15T19:13:32.435Z,4.03
2018-03-15T19:15:59.180Z,3.07
2018-03-15T19:18:25.928Z,2.07
2018-03-15T19:20:52.651Z,2.27
2018-03-15T19:23:19.373Z,3.73
2018-03-15T19:25:46.103Z,4.60
2018-03-15T19:28:12.858Z,6.73
2018-03-15T19:30:39.604Z,5.57
2018-03-15T19:33:06.382Z,3.00
2018-03-15T19:35:33.121Z,3.00
2018-03-15T19:37:59.862Z,2.10
2018-03-15T19:40:26.611Z,4.80
2018-03-15T19:42:55.678Z,2.53
2018-03-15T19:45:22.524Z,2.50
2018-03-15T19:47:49.310Z,3.20
2018-03-15T19:50:16.063Z,2.23
2018-03-15T19:52:42.858Z,3.17
2018-03-15T19:55:09.584Z,2.30
2018-03-15T19:57:36.346Z,2.37
2018-03-15T20:00:03.127Z,2.60
2018-03-15T20:02:29.945Z,3.30
2018-03-15T20:04:56.704Z,3.40
2018-03-15T20:07:23.434Z,2.70
2018-03-15T20:09:50.163Z,2.53
2018-03-15T20:12:16.921Z,4.07
2018-03-15T20:14:43.673Z,4.60
2018-03-15T20:17:10.426Z,2.93
2018-03-15T20:19:37.235Z,3.37
2018-03-15T20:22:03.986Z,3.63
2018-03-15T20:24:32.519Z,2.10
2018-03-15T20:26:59.331Z,6.90
2018-03-15T20:29:26.112Z,4.63
2018-03-15T20:31:52.927Z,4.03
2018-03-15T20:34:19.739Z,2.97
2018-03-15T20:36:46.498Z,4.13
2018-03-15T20:39:30.018Z,4.90
2018-03-15T20:41:56.779Z,2.73
2018-03-15T20:44:23.626Z,4.10
2018-03-15T20:46:56.100Z,4.57
2018-03-15T20:49:22.910Z,2.60
2018-03-15T20:51:50.558Z,4.40
2018-03-15T20:54:17.322Z,8.67
2018-03-15T20:56:44.162Z,5.80
2018-03-15T20:59:10.907Z,2.77
2018-03-15T21:01:37.665Z,6.07
2018-03-15T21:04:04.454Z,3.63
2018-03-15T21:06:31.232Z,3.27
2018-03-15T21:08:57.999Z,3.67
2018-03-15T21:11:24.748Z,2.73
2018-03-15T21:13:51.629Z,5.27
2018-03-15T21:16:18.385Z,7.23
2018-03-15T21:18:45.228Z,5.27
2018-03-15T21:21:12.016Z,7.80
2018-03-15T21:23:39.024Z,7.33
2018-03-15T21:26:05.878Z,4.90
2018-03-15T21:28:32.747Z,5.60
2018-03-15T21:30:59.495Z,13.40
2018-03-15T21:33:26.900Z,7.93
2018-03-15T21:35:53.718Z,6.60
2018-03-15T21:38:20.587Z,4.93
2018-03-15T21:40:47.366Z,6.23
2018-03-15T21:43:14.223Z,6.50
2018-03-15T21:45:41.022Z,9.70
2018-03-15T21:48:08.442Z,14.70
2018-03-15T21:50:35.394Z,12.30
2018-03-15T21:53:02.284Z,7.70
2018-03-15T21:55:29.096Z,6.37
2018-03-15T21:57:56.317Z,6.67
2018-03-15T22:00:23.223Z,4.70
2018-03-15T22:02:49.984Z,6.70
2018-03-15T22:05:16.757Z,5.63
2018-03-15T22:07:43.566Z,5.13
2018-03-15T22:10:10.458Z,5.27
2018-03-15T22:12:37.308Z,6.93
2018-03-15T22:15:04.062Z,4.60
2018-03-15T22:17:30.864Z,10.53
2018-03-15T22:19:57.580Z,7.80
2018-03-15T22:22:24.336Z,10.03
2018-03-15T22:24:51.075Z,5.93
2018-03-15T22:27:17.804Z,6.47
2018-03-15T22:29:44.526Z,6.27
2018-03-15T22:32:11.263Z,9.40
2018-03-15T22:34:38.014Z,9.63
2018-03-15T22:37:04.736Z,5.83
2018-03-15T22:39:31.475Z,7.97
2018-03-15T22:41:58.215Z,6.27
2018-03-15T22:44:24.927Z,7.43
2018-03-15T22:46:51.674Z,6.33
2018-03-15T22:49:18.385Z,8.10
2018-03-15T22:51:45.104Z,7.10
2018-03-15T22:54:11.882Z,7.27
2018-03-15T22:56:38.605Z,4.50
2018-03-15T22:59:05.339Z,5.50
2018-03-15T23:01:32.356Z,4.93
2018-03-15T23:03:59.104Z,6.37
2018-03-15T23:06:25.877Z,7.50
2018-03-15T23:08:52.577Z,6.37
2018-03-15T23:11:19.322Z,4.23
2018-03-15T23:13:46.072Z,6.63
2018-03-15T23:16:12.821Z,6.23
2018-03-15T23:18:39.550Z,11.43
2018-03-15T23:21:06.251Z,3.53
2018-03-15T23:23:32.996Z,7.83
2018-03-15T23:25:59.725Z,5.73
2018-03-15T23:28:26.470Z,5.13
2018-03-15T23:30:53.206Z,7.57
2018-03-15T23:33:19.918Z,7.37
2018-03-15T23:35:46.667Z,6.50
2018-03-15T23:38:13.379Z,6.93
2018-03-15T23:40:40.111Z,5.80
2018-03-15T23:43:06.838Z,11.57
2018-03-15T23:45:33.598Z,8.80
2018-03-15T23:48:00.331Z,4.97
2018-03-15T23:50:27.040Z,7.33
2018-03-15T23:52:53.778Z,7.60
2018-03-15T23:55:20.516Z,7.77
2018-03-15T23:57:47.271Z,7.27
